sensor_id;sensor_type;location;lat;lon;timestamp;pressure;altitude;pressure_sealevel;temperature;humidity
56040;BME280;43937;41.366;2.072;2023-03-26T00:01:06;100946.53;;;16.14;60.50
56040;BME280;43937;41.366;2.072;2023-03-26T00:10:39;100947.31;;;16.08;60.36
56040;BME280;43937;41.366;2.072;2023-03-26T00:13:06;100969.38;;;16.21;60.35
56040;BME280;43937;41.366;2.072;2023-03-26T00:19:35;100969.41;;;15.99;61.04
56040;BME280;43937;41.366;2.072;2023-03-26T00:26:03;100961.91;;;15.87;61.68
56040;BME280;43937;41.366;2.072;2023-03-26T00:28:29;100970.66;;;15.97;61.60
56040;BME280;43937;41.366;2.072;2023-03-26T00:32:56;100954.78;;;15.92;61.13
56040;BME280;43937;41.366;2.072;2023-03-26T00:35:21;100902.50;;;15.43;61.48
56040;BME280;43937;41.366;2.072;2023-03-26T00:37:48;100940.31;;;15.62;61.68
56040;BME280;43937;41.366;2.072;2023-03-26T00:42:32;100946.16;;;15.74;61.40
56040;BME280;43937;41.366;2.072;2023-03-26T00:45:20;100922.69;;;15.71;61.19
56040;BME280;43937;41.366;2.072;2023-03-26T00:47:47;100925.09;;;15.81;61.44
56040;BME280;43937;41.366;2.072;2023-03-26T01:01:00;100912.75;;;15.92;62.46
56040;BME280;43937;41.366;2.072;2023-03-26T01:07:18;100902.63;;;15.92;62.85
56040;BME280;43937;41.366;2.072;2023-03-26T01:10:25;100897.13;;;15.92;62.57
56040;BME280;43937;41.366;2.072;2023-03-26T01:12:50;100883.28;;;15.79;62.35
56040;BME280;43937;41.366;2.072;2023-03-26T01:15:16;100899.56;;;15.80;62.38
56040;BME280;43937;41.366;2.072;2023-03-26T01:21:27;100828.00;;;15.18;62.59
56040;BME280;43937;41.366;2.072;2023-03-26T01:24:02;100839.88;;;15.25;62.92
56040;BME280;43937;41.366;2.072;2023-03-26T01:28:29;100856.75;;;15.43;62.78
56040;BME280;43937;41.366;2.072;2023-03-26T01:35:19;100865.94;;;15.57;62.71
56040;BME280;43937;41.366;2.072;2023-03-26T01:37:49;100862.09;;;15.51;63.28
56040;BME280;43937;41.366;2.072;2023-03-26T01:40:28;100852.75;;;15.46;63.39
56040;BME280;43937;41.366;2.072;2023-03-26T01:47:08;100838.72;;;15.34;63.30
56040;BME280;43937;41.366;2.072;2023-03-26T01:51:09;100836.34;;;15.31;63.71
56040;BME280;43937;41.366;2.072;2023-03-26T01:57:26;100830.88;;;15.31;63.64
56040;BME280;43937;41.366;2.072;2023-03-26T02:08:40;100819.56;;;14.98;64.10
56040;BME280;43937;41.366;2.072;2023-03-26T02:12:12;100813.31;;;14.68;65.18
56040;BME280;43937;41.366;2.072;2023-03-26T02:14:58;100810.66;;;14.59;66.04
56040;BME280;43937;41.366;2.072;2023-03-26T02:18:28;100804.50;;;14.42;66.68
56040;BME280;43937;41.366;2.072;2023-03-26T02:22:17;100781.28;;;14.38;67.31
56040;BME280;43937;41.366;2.072;2023-03-26T02:24:43;100749.69;;;14.06;67.40
56040;BME280;43937;41.366;2.072;2023-03-26T02:27:21;100792.16;;;14.32;67.07
56040;BME280;43937;41.366;2.072;2023-03-26T02:29:47;100758.66;;;14.15;67.64
56040;BME280;43937;41.366;2.072;2023-03-26T02:33:22;100778.94;;;14.20;67.83
56040;BME280;43937;41.366;2.072;2023-03-26T02:41:01;100724.88;;;13.78;68.74
56040;BME280;43937;41.366;2.072;2023-03-26T02:44:43;100771.31;;;14.01;69.11
56040;BME280;43937;41.366;2.072;2023-03-26T02:49:35;100729.97;;;13.81;69.23
56040;BME280;43937;41.366;2.072;2023-03-26T02:53:55;100747.31;;;13.73;70.27
56040;BME280;43937;41.366;2.072;2023-03-26T03:08:46;100745.72;;;13.94;70.55
56040;BME280;43937;41.366;2.072;2023-03-26T03:11:16;100743.00;;;13.94;70.59
56040;BME280;43937;41.366;2.072;2023-03-26T03:18:02;100724.59;;;13.88;70.85
56040;BME280;43937;41.366;2.072;2023-03-26T03:26:56;100732.31;;;13.69;72.99
56040;BME280;43937;41.366;2.072;2023-03-26T03:29:24;100726.09;;;13.61;72.57
56040;BME280;43937;41.366;2.072;2023-03-26T03:31:49;100727.28;;;13.58;72.94
56040;BME280;43937;41.366;2.072;2023-03-26T03:35:03;100680.06;;;13.35;73.08
56040;BME280;43937;41.366;2.072;2023-03-26T03:37:29;100714.66;;;13.57;73.13
56040;BME280;43937;41.366;2.072;2023-03-26T03:45:04;100707.31;;;13.58;73.21
56040;BME280;43937;41.366;2.072;2023-03-26T03:47:30;100704.47;;;13.51;73.54
56040;BME280;43937;41.366;2.072;2023-03-26T03:49:56;100706.06;;;13.45;74.21
56040;BME280;43937;41.366;2.072;2023-03-26T03:54:24;100702.66;;;13.28;74.32
56040;BME280;43937;41.366;2.072;2023-03-26T04:00:20;100696.03;;;13.23;75.16
56040;BME280;43937;41.366;2.072;2023-03-26T04:05:26;100694.00;;;13.40;74.29
56040;BME280;43937;41.366;2.072;2023-03-26T04:13:04;100708.63;;;13.47;74.65
56040;BME280;43937;41.366;2.072;2023-03-26T04:17:41;100698.34;;;13.49;74.03
56040;BME280;43937;41.366;2.072;2023-03-26T04:20:10;100702.88;;;13.42;75.44
56040;BME280;43937;41.366;2.072;2023-03-26T04:24:24;100700.03;;;13.35;75.45
56040;BME280;43937;41.366;2.072;2023-03-26T04:26:50;100698.44;;;13.41;74.92
56040;BME280;43937;41.366;2.072;2023-03-26T04:31:22;100678.19;;;13.50;74.41
56040;BME280;43937;41.366;2.072;2023-03-26T04:43:55;100708.31;;;13.27;75.32
56040;BME280;43937;41.366;2.072;2023-03-26T04:49:18;100699.75;;;13.22;75.50
56040;BME280;43937;41.366;2.072;2023-03-26T04:51:44;100695.31;;;13.29;75.39
56040;BME280;43937;41.366;2.072;2023-03-26T04:54:13;100695.31;;;13.29;74.76
56040;BME280;43937;41.366;2.072;2023-03-26T05:00:06;100688.81;;;13.45;74.30
56040;BME280;43937;41.366;2.072;2023-03-26T05:04:15;100683.91;;;13.55;73.66
56040;BME280;43937;41.366;2.072;2023-03-26T05:08:38;100662.53;;;13.21;74.31
56040;BME280;43937;41.366;2.072;2023-03-26T05:17:35;100682.50;;;13.29;74.87
56040;BME280;43937;41.366;2.072;2023-03-26T05:20:49;100677.53;;;13.10;75.27
56040;BME280;43937;41.366;2.072;2023-03-26T05:23:41;100636.69;;;12.71;75.60
56040;BME280;43937;41.366;2.072;2023-03-26T05:29:47;100679.38;;;13.10;75.56
56040;BME280;43937;41.366;2.072;2023-03-26T05:42:45;100655.41;;;12.97;76.25
56040;BME280;43937;41.366;2.072;2023-03-26T05:45:12;100666.59;;;13.10;75.78
56040;BME280;43937;41.366;2.072;2023-03-26T05:56:08;100630.94;;;13.03;75.87
56040;BME280;43937;41.366;2.072;2023-03-26T05:58:35;100655.09;;;13.15;74.90
56040;BME280;43937;41.366;2.072;2023-03-26T06:17:02;100646.50;;;13.41;74.09
56040;BME280;43937;41.366;2.072;2023-03-26T06:21:04;100648.66;;;13.60;73.33
56040;BME280;43937;41.366;2.072;2023-03-26T06:25:06;100620.00;;;13.56;72.54
56040;BME280;43937;41.366;2.072;2023-03-26T06:27:32;100653.44;;;13.88;71.73
56040;BME280;43937;41.366;2.072;2023-03-26T06:46:21;100650.53;;;15.33;66.59
56040;BME280;43937;41.366;2.072;2023-03-26T06:48:47;100664.31;;;15.68;66.01
56040;BME280;43937;41.366;2.072;2023-03-26T06:51:13;100670.31;;;15.91;64.36
56040;BME280;43937;41.366;2.072;2023-03-26T06:53:38;100666.00;;;16.78;62.13
56040;BME280;43937;41.366;2.072;2023-03-26T06:56:50;100658.75;;;21.55;49.05
56040;BME280;43937;41.366;2.072;2023-03-26T07:12:22;100668.06;;;26.98;35.63
56040;BME280;43937;41.366;2.072;2023-03-26T07:14:47;100669.00;;;26.31;36.53
56040;BME280;43937;41.366;2.072;2023-03-26T07:17:13;100673.81;;;25.45;38.29
56040;BME280;43937;41.366;2.072;2023-03-26T07:21:26;100623.00;;;26.43;36.51
56040;BME280;43937;41.366;2.072;2023-03-26T07:24:35;100638.41;;;29.33;31.57
56040;BME280;43937;41.366;2.072;2023-03-26T07:44:46;100676.69;;;32.59;26.70
56040;BME280;43937;41.366;2.072;2023-03-26T07:49:52;100674.38;;;34.27;24.97
56040;BME280;43937;41.366;2.072;2023-03-26T07:52:18;100660.25;;;33.56;25.39
56040;BME280;43937;41.366;2.072;2023-03-26T08:05:59;100631.78;;;27.03;33.49
56040;BME280;43937;41.366;2.072;2023-03-26T08:32:15;100666.91;;;26.63;34.38
56040;BME280;43937;41.366;2.072;2023-03-26T08:38:05;100654.03;;;26.62;33.87
56040;BME280;43937;41.366;2.072;2023-03-26T09:42:15;100618.41;;;24.57;36.83
56040;BME280;43937;41.366;2.072;2023-03-26T09:51:12;100611.59;;;24.43;36.85
56040;BME280;43937;41.366;2.072;2023-03-26T10:05:46;100598.97;;;26.27;33.32
56040;BME280;43937;41.366;2.072;2023-03-26T10:16:03;100590.13;;;26.71;33.19
56040;BME280;43937;41.366;2.072;2023-03-26T10:20:29;100583.41;;;26.62;32.89
56040;BME280;43937;41.366;2.072;2023-03-26T10:37:12;100576.63;;;27.75;35.76
56040;BME280;43937;41.366;2.072;2023-03-26T11:13:55;100572.81;;;27.25;36.78
56040;BME280;43937;41.366;2.072;2023-03-26T11:26:33;100559.13;;;27.13;30.15
56040;BME280;43937;41.366;2.072;2023-03-26T11:31:07;100553.81;;;27.07;30.96
56040;BME280;43937;41.366;2.072;2023-03-26T11:33:49;100538.19;;;26.55;31.84
56040;BME280;43937;41.366;2.072;2023-03-26T11:39:28;100560.25;;;25.73;31.93
56040;BME280;43937;41.366;2.072;2023-03-26T11:47:35;100560.69;;;26.12;32.22
56040;BME280;43937;41.366;2.072;2023-03-26T11:59:16;100541.81;;;27.22;29.65
56040;BME280;43937;41.366;2.072;2023-03-26T12:07:19;100546.84;;;26.58;30.55
56040;BME280;43937;41.366;2.072;2023-03-26T12:24:34;100524.22;;;26.80;29.47
56040;BME280;43937;41.366;2.072;2023-03-26T12:36:30;100487.31;;;25.96;29.25
56040;BME280;43937;41.366;2.072;2023-03-26T12:40:31;100500.72;;;26.10;29.20
56040;BME280;43937;41.366;2.072;2023-03-26T12:47:31;100499.59;;;26.26;29.52
56040;BME280;43937;41.366;2.072;2023-03-26T13:15:49;100456.25;;;27.36;26.93
56040;BME280;43937;41.366;2.072;2023-03-26T13:54:29;100441.78;;;27.18;23.68
56040;BME280;43937;41.366;2.072;2023-03-26T13:57:08;100424.69;;;27.35;22.26
56040;BME280;43937;41.366;2.072;2023-03-26T13:59:44;100420.84;;;27.01;22.66
56040;BME280;43937;41.366;2.072;2023-03-26T14:02:48;100394.38;;;26.83;21.44
56040;BME280;43937;41.366;2.072;2023-03-26T14:14:33;100412.00;;;26.47;23.11
56040;BME280;43937;41.366;2.072;2023-03-26T14:32:31;100428.22;;;26.61;17.83
56040;BME280;43937;41.366;2.072;2023-03-26T14:51:56;100410.06;;;26.22;18.35
56040;BME280;43937;41.366;2.072;2023-03-26T15:50:34;100446.38;;;25.44;14.64
56040;BME280;43937;41.366;2.072;2023-03-26T15:53:42;100472.09;;;25.62;15.12
56040;BME280;43937;41.366;2.072;2023-03-26T16:02:06;100435.47;;;25.27;16.02
56040;BME280;43937;41.366;2.072;2023-03-26T16:18:42;100428.47;;;25.15;16.11
56040;BME280;43937;41.366;2.072;2023-03-26T16:40:49;100433.69;;;24.68;16.13
56040;BME280;43937;41.366;2.072;2023-03-26T16:54:28;100455.31;;;24.51;15.81
56040;BME280;43937;41.366;2.072;2023-03-26T17:00:34;100459.97;;;24.45;14.83
56040;BME280;43937;41.366;2.072;2023-03-26T17:04:44;100451.84;;;24.39;14.64
56040;BME280;43937;41.366;2.072;2023-03-26T17:09:20;100501.53;;;24.30;14.60
56040;BME280;43937;41.366;2.072;2023-03-26T17:16:11;100498.63;;;24.15;14.45
56040;BME280;43937;41.366;2.072;2023-03-26T17:18:56;100509.00;;;24.25;14.61
56040;BME280;43937;41.366;2.072;2023-03-26T17:36:22;100527.47;;;23.65;15.54
56040;BME280;43937;41.366;2.072;2023-03-26T17:40:48;100542.84;;;23.50;15.63
56040;BME280;43937;41.366;2.072;2023-03-26T17:49:26;100540.75;;;23.41;15.71
56040;BME280;43937;41.366;2.072;2023-03-26T17:54:54;100546.13;;;22.92;16.26
56040;BME280;43937;41.366;2.072;2023-03-26T18:00:49;100562.34;;;22.66;16.41
56040;BME280;43937;41.366;2.072;2023-03-26T18:21:49;100579.69;;;22.28;16.54
56040;BME280;43937;41.366;2.072;2023-03-26T18:24:20;100589.53;;;22.35;16.69
56040;BME280;43937;41.366;2.072;2023-03-26T18:29:33;100608.94;;;22.35;16.52
56040;BME280;43937;41.366;2.072;2023-03-26T18:33:56;100588.16;;;22.09;17.22
56040;BME280;43937;41.366;2.072;2023-03-26T18:37:32;100614.78;;;22.10;17.40
56040;BME280;43937;41.366;2.072;2023-03-26T18:48:17;100613.63;;;21.94;17.28
56040;BME280;43937;41.366;2.072;2023-03-26T18:50:46;100620.50;;;21.92;17.35
56040;BME280;43937;41.366;2.072;2023-03-26T18:54:36;100612.59;;;21.60;17.54
56040;BME280;43937;41.366;2.072;2023-03-26T18:57:09;100651.13;;;21.85;17.70
56040;BME280;43937;41.366;2.072;2023-03-26T18:59:36;100632.94;;;21.66;17.53
56040;BME280;43937;41.366;2.072;2023-03-26T19:02:11;100639.22;;;21.73;17.79
56040;BME280;43937;41.366;2.072;2023-03-26T19:04:41;100614.88;;;21.63;17.41
56040;BME280;43937;41.366;2.072;2023-03-26T19:07:11;100634.88;;;21.65;18.18
56040;BME280;43937;41.366;2.072;2023-03-26T19:11:10;100629.00;;;21.50;18.38
56040;BME280;43937;41.366;2.072;2023-03-26T19:16:25;100635.38;;;21.50;18.13
56040;BME280;43937;41.366;2.072;2023-03-26T19:21:05;100624.16;;;21.34;18.71
56040;BME280;43937;41.366;2.072;2023-03-26T19:23:37;100617.41;;;21.30;18.73
56040;BME280;43937;41.366;2.072;2023-03-26T19:26:06;100625.34;;;21.26;18.75
56040;BME280;43937;41.366;2.072;2023-03-26T19:38:26;100653.28;;;21.24;19.33
56040;BME280;43937;41.366;2.072;2023-03-26T19:45:32;100580.41;;;20.65;19.63
56040;BME280;43937;41.366;2.072;2023-03-26T19:49:39;100664.22;;;21.08;19.52
56040;BME280;43937;41.366;2.072;2023-03-26T19:52:20;100666.63;;;21.04;20.15
56040;BME280;43937;41.366;2.072;2023-03-26T19:54:59;100659.25;;;20.98;19.88
56040;BME280;43937;41.366;2.072;2023-03-26T19:59:59;100666.09;;;20.95;20.41
56040;BME280;43937;41.366;2.072;2023-03-26T20:02:28;100642.59;;;20.74;19.77
56040;BME280;43937;41.366;2.072;2023-03-26T20:06:40;100660.31;;;20.85;20.06
56040;BME280;43937;41.366;2.072;2023-03-26T20:09:05;100675.72;;;20.93;20.33
56040;BME280;43937;41.366;2.072;2023-03-26T20:11:49;100672.91;;;20.81;20.42
56040;BME280;43937;41.366;2.072;2023-03-26T20:14:53;100670.97;;;20.70;20.05
56040;BME280;43937;41.366;2.072;2023-03-26T20:17:18;100671.09;;;20.75;20.46
56040;BME280;43937;41.366;2.072;2023-03-26T20:20:59;100686.84;;;20.74;20.97
56040;BME280;43937;41.366;2.072;2023-03-26T20:26:11;100678.41;;;20.69;20.62
56040;BME280;43937;41.366;2.072;2023-03-26T20:36:23;100679.91;;;20.53;21.45
56040;BME280;43937;41.366;2.072;2023-03-26T20:46:01;100676.59;;;20.45;21.97
56040;BME280;43937;41.366;2.072;2023-03-26T20:49:19;100682.00;;;20.40;22.05
56040;BME280;43937;41.366;2.072;2023-03-26T20:53:17;100681.84;;;20.34;22.42
56040;BME280;43937;41.366;2.072;2023-03-26T20:57:52;100677.88;;;20.30;22.39
56040;BME280;43937;41.366;2.072;2023-03-26T21:00:19;100681.94;;;20.28;22.49
56040;BME280;43937;41.366;2.072;2023-03-26T21:02:53;100679.47;;;20.20;22.48
56040;BME280;43937;41.366;2.072;2023-03-26T21:05:20;100673.19;;;20.31;22.44
56040;BME280;43937;41.366;2.072;2023-03-26T21:09:42;100674.41;;;20.17;22.10
56040;BME280;43937;41.366;2.072;2023-03-26T21:12:29;100665.97;;;20.11;22.92
56040;BME280;43937;41.366;2.072;2023-03-26T21:14:57;100663.59;;;20.15;22.99
56040;BME280;43937;41.366;2.072;2023-03-26T21:17:23;100671.97;;;20.08;23.14
56040;BME280;43937;41.366;2.072;2023-03-26T21:19:49;100638.28;;;19.81;22.71
56040;BME280;43937;41.366;2.072;2023-03-26T21:23:46;100668.91;;;19.98;23.41
56040;BME280;43937;41.366;2.072;2023-03-26T21:29:12;100675.50;;;19.97;23.35
56040;BME280;43937;41.366;2.072;2023-03-26T21:32:49;100687.69;;;19.71;23.99
56040;BME280;43937;41.366;2.072;2023-03-26T21:35:44;100689.75;;;19.76;24.27
56040;BME280;43937;41.366;2.072;2023-03-26T21:39:48;100675.22;;;19.62;24.28
56040;BME280;43937;41.366;2.072;2023-03-26T21:45:15;100647.63;;;19.18;25.18
56040;BME280;43937;41.366;2.072;2023-03-26T21:48:37;100689.00;;;19.43;25.12
56040;BME280;43937;41.366;2.072;2023-03-26T21:52:23;100687.19;;;19.31;26.09
56040;BME280;43937;41.366;2.072;2023-03-26T21:57:25;100685.16;;;19.19;26.18
56040;BME280;43937;41.366;2.072;2023-03-26T22:06:27;100633.34;;;18.65;26.24
56040;BME280;43937;41.366;2.072;2023-03-26T22:14:41;100707.97;;;18.76;26.95
56040;BME280;43937;41.366;2.072;2023-03-26T22:17:06;100717.69;;;18.72;27.23
56040;BME280;43937;41.366;2.072;2023-03-26T22:19:32;100712.91;;;18.61;27.44
56040;BME280;43937;41.366;2.072;2023-03-26T22:24:43;100717.84;;;18.46;28.24
56040;BME280;43937;41.366;2.072;2023-03-26T22:27:09;100734.97;;;18.61;28.39
56040;BME280;43937;41.366;2.072;2023-03-26T22:30:04;100720.41;;;18.41;28.68
56040;BME280;43937;41.366;2.072;2023-03-26T22:35:13;100746.72;;;18.30;29.26
56040;BME280;43937;41.366;2.072;2023-03-26T22:37:39;100723.06;;;18.16;28.89
56040;BME280;43937;41.366;2.072;2023-03-26T22:40:05;100752.69;;;18.27;29.11
56040;BME280;43937;41.366;2.072;2023-03-26T22:42:49;100746.13;;;18.21;29.08
56040;BME280;43937;41.366;2.072;2023-03-26T22:45:14;100753.13;;;18.17;30.00
56040;BME280;43937;41.366;2.072;2023-03-26T22:54:44;100742.44;;;17.82;30.48
56040;BME280;43937;41.366;2.072;2023-03-26T22:59:43;100772.91;;;17.88;30.32
56040;BME280;43937;41.366;2.072;2023-03-26T23:02:09;100774.81;;;17.80;30.34
56040;BME280;43937;41.366;2.072;2023-03-26T23:06:55;100765.47;;;17.88;30.42
56040;BME280;43937;41.366;2.072;2023-03-26T23:12:32;100756.16;;;17.69;30.56
56040;BME280;43937;41.366;2.072;2023-03-26T23:22:46;100759.56;;;17.45;31.28
56040;BME280;43937;41.366;2.072;2023-03-26T23:28:03;100804.03;;;17.61;31.88
56040;BME280;43937;41.366;2.072;2023-03-26T23:31:10;100795.56;;;17.50;31.87
56040;BME280;43937;41.366;2.072;2023-03-26T23:33:37;100778.19;;;17.29;32.53
56040;BME280;43937;41.366;2.072;2023-03-26T23:36:05;100804.66;;;17.37;32.19
56040;BME280;43937;41.366;2.072;2023-03-26T23:39:08;100773.28;;;17.05;33.17
56040;BME280;43937;41.366;2.072;2023-03-26T23:41:35;100787.88;;;17.12;33.06
56040;BME280;43937;41.366;2.072;2023-03-26T23:46:07;100827.25;;;17.19;32.93
56040;BME280;43937;41.366;2.072;2023-03-26T23:51:32;100829.72;;;16.94;34.25
56040;BME280;43937;41.366;2.072;2023-03-26T23:54:00;100848.81;;;17.15;34.04
56040;BME280;43937;41.366;2.072;2023-03-26T23:56:27;100849.22;;;17.06;34.35
